Time;durP1;ratioP1;P1;durP2;ratioP2;P2;SDS_P1;SDS_P2;PMS_P1;PMS_P2;Temp;Humidity;BMP_temperature;BMP_pressure;BME280_temperature;BME280_humidity;BME280_pressure;Samples;Min_cycle;Max_cycle;Signal;HPM_P1;HPM_P2
2024/03/23 00:00:42;;;;;;;15.63;6.38;;;;;;;10.08;100.00;100050.63;5103817;28;20574;-74
2024/03/23 00:03:12;;;;;;;16.52;6.55;;;;;;;9.96;100.00;100044.13;5104271;29;20038;-74
2024/03/23 00:05:43;;;;;;;12.88;6.35;;;;;;;10.03;100.00;100035.13;5104651;28;20035;-74
2024/03/23 00:08:13;;;;;;;11.30;5.45;;;;;;;10.08;100.00;100042.78;5108173;28;20502;-74
2024/03/23 00:10:43;;;;;;;17.15;6.50;;;;;;;9.91;100.00;100040.00;5103827;28;20113;-74
2024/03/23 00:13:14;;;;;;;14.05;6.38;;;;;;;9.96;100.00;100033.69;5104009;28;20387;-74
2024/03/23 00:15:45;;;;;;;20.15;6.57;;;;;;;9.90;100.00;100027.88;5125965;23;20079;-72
2024/03/23 00:18:15;;;;;;;17.23;6.38;;;;;;;9.99;100.00;100022.28;5120940;28;20031;-71
2024/03/23 00:20:47;;;;;;;14.02;6.28;;;;;;;9.98;100.00;100003.13;5123624;28;20031;-71
2024/03/23 00:23:18;;;;;;;14.13;6.53;;;;;;;10.09;100.00;100005.31;5125513;28;20026;-71
2024/03/23 00:25:48;;;;;;;16.00;6.07;;;;;;;10.01;100.00;99999.56;5115129;28;20042;-71
2024/03/23 00:28:18;;;;;;;14.15;6.00;;;;;;;10.19;100.00;99999.63;5129358;28;20438;-73
2024/03/23 00:30:48;;;;;;;11.82;5.63;;;;;;;10.01;100.00;99996.94;5126197;28;20031;-72
2024/03/23 00:33:19;;;;;;;10.85;4.05;;;;;;;9.91;100.00;99993.88;5127300;28;20069;-72
2024/03/23 00:35:49;;;;;;;14.18;4.85;;;;;;;9.85;100.00;99995.91;5123611;28;20449;-72
2024/03/23 00:38:21;;;;;;;13.10;5.20;;;;;;;9.99;100.00;99980.50;5143513;28;20210;-72
2024/03/23 00:40:52;;;;;;;13.13;5.93;;;;;;;9.94;100.00;99983.31;5125602;28;20070;-70
2024/03/23 00:43:23;;;;;;;13.18;4.32;;;;;;;9.90;100.00;99966.09;5129865;28;20074;-73
2024/03/23 00:45:53;;;;;;;15.32;4.25;;;;;;;9.95;100.00;99971.09;5122784;28;20050;-70
2024/03/23 00:48:23;;;;;;;12.68;4.15;;;;;;;9.92;100.00;99966.00;5121901;28;20039;-71
2024/03/23 00:50:53;;;;;;;16.17;4.80;;;;;;;9.78;100.00;99964.00;5121676;28;20034;-71
2024/03/23 00:53:24;;;;;;;10.15;3.38;;;;;;;9.83;100.00;99963.81;5124273;28;20023;-72
2024/03/23 00:55:54;;;;;;;11.55;3.78;;;;;;;9.68;100.00;99957.44;5130395;28;20035;-73
2024/03/23 00:58:24;;;;;;;9.57;2.90;;;;;;;9.63;100.00;99948.13;5126998;28;20018;-72
2024/03/23 01:00:54;;;;;;;7.65;2.97;;;;;;;9.68;100.00;99954.84;5121413;28;20031;-69
2024/03/23 01:03:25;;;;;;;11.63;3.83;;;;;;;9.71;100.00;99946.03;5123316;28;20065;-71
2024/03/23 01:06:01;;;;;;;11.88;3.80;;;;;;;9.74;100.00;99949.38;5118870;28;20314;-72
2024/03/23 01:08:32;;;;;;;10.65;3.22;;;;;;;9.74;100.00;99944.16;5121132;28;20034;-71
2024/03/23 01:11:02;;;;;;;15.32;4.30;;;;;;;9.71;100.00;99940.81;5118592;28;20028;-73
2024/03/23 01:13:32;;;;;;;12.15;3.45;;;;;;;9.72;100.00;99939.91;5124245;28;20022;-71
2024/03/23 01:16:03;;;;;;;11.75;3.53;;;;;;;9.63;100.00;99943.75;5123888;28;20453;-72
2024/03/23 01:18:34;;;;;;;10.40;3.83;;;;;;;9.59;100.00;99936.97;5126435;28;20023;-72
2024/03/23 01:21:04;;;;;;;11.40;3.80;;;;;;;9.64;100.00;99926.34;5124133;28;20093;-71
2024/03/23 01:23:34;;;;;;;12.23;3.45;;;;;;;9.62;100.00;99918.59;5127706;28;20034;-73
2024/03/23 01:26:04;;;;;;;13.75;4.25;;;;;;;9.67;100.00;99919.22;5124854;28;20866;-72
2024/03/23 01:28:35;;;;;;;12.63;4.25;;;;;;;9.69;100.00;99921.78;5126887;28;20058;-71
2024/03/23 01:31:05;;;;;;;14.65;3.67;;;;;;;9.72;100.00;99919.03;5125428;28;20491;-72
2024/03/23 01:33:35;;;;;;;11.70;3.90;;;;;;;9.74;100.00;99915.47;5126350;28;20025;-71
2024/03/23 01:36:06;;;;;;;11.82;3.78;;;;;;;9.78;100.00;99903.09;5124606;28;20034;-73
2024/03/23 01:38:36;;;;;;;14.10;3.72;;;;;;;9.47;100.00;99898.34;5114800;28;20113;-71
2024/03/23 01:41:06;;;;;;;11.15;3.35;;;;;;;9.51;100.00;99897.31;5130382;28;20027;-72
2024/03/23 01:43:37;;;;;;;12.77;3.50;;;;;;;9.41;100.00;99902.97;5130652;28;20073;-71
2024/03/23 01:46:07;;;;;;;12.00;3.42;;;;;;;9.40;100.00;99896.94;5129623;28;20063;-72
2024/03/23 01:48:37;;;;;;;12.73;3.45;;;;;;;9.42;100.00;99887.28;5134009;28;20611;-69
2024/03/23 01:51:08;;;;;;;11.48;3.28;;;;;;;9.49;100.00;99885.25;5132857;28;20542;-71
2024/03/23 01:53:38;;;;;;;9.35;3.13;;;;;;;9.45;100.00;99886.31;5133811;28;20031;-71
2024/03/23 01:56:09;;;;;;;9.55;3.22;;;;;;;9.47;100.00;99881.88;5129808;28;20027;-72
2024/03/23 01:58:39;;;;;;;11.98;3.33;;;;;;;9.42;100.00;99873.38;5132173;28;20030;-71
2024/03/23 02:01:09;;;;;;;11.68;2.90;;;;;;;9.40;100.00;99875.19;5130279;28;20031;-73
2024/03/23 02:03:39;;;;;;;9.90;2.75;;;;;;;9.31;100.00;99865.16;5131481;28;20122;-71
2024/03/23 02:06:10;;;;;;;10.80;2.80;;;;;;;9.16;100.00;99866.63;5126877;28;20506;-72
2024/03/23 02:08:40;;;;;;;12.23;2.72;;;;;;;9.12;100.00;99864.25;5127755;28;20035;-72
2024/03/23 02:11:11;;;;;;;12.57;2.53;;;;;;;9.07;100.00;99865.34;5128951;28;20037;-71
2024/03/23 02:13:41;;;;;;;9.85;2.70;;;;;;;9.05;100.00;99872.38;5127821;28;20046;-73
2024/03/23 02:16:13;;;;;;;10.10;2.55;;;;;;;9.07;100.00;99866.16;5131292;28;20106;-72
2024/03/23 02:18:43;;;;;;;10.50;3.00;;;;;;;9.02;100.00;99862.91;5129568;28;20389;-72
2024/03/23 02:21:13;;;;;;;10.35;2.83;;;;;;;8.96;100.00;99862.31;5131725;28;20035;-72
2024/03/23 02:23:43;;;;;;;9.30;2.72;;;;;;;9.02;100.00;99843.81;5131256;28;20113;-71
2024/03/23 02:26:15;;;;;;;10.48;2.58;;;;;;;9.10;100.00;99844.34;5133193;28;20298;-71
2024/03/23 02:28:45;;;;;;;8.20;2.53;;;;;;;9.06;100.00;99829.75;5130241;28;20118;-72
2024/03/23 02:31:15;;;;;;;8.35;2.47;;;;;;;8.92;100.00;99840.72;5130610;28;20173;-73
2024/03/23 02:33:45;;;;;;;13.13;3.00;;;;;;;8.96;100.00;99833.63;5130591;28;20046;-70
2024/03/23 02:36:16;;;;;;;12.05;2.95;;;;;;;8.89;100.00;99830.44;5131839;28;20030;-72
2024/03/23 02:38:46;;;;;;;8.25;2.13;;;;;;;9.03;100.00;99822.91;5130418;28;20356;-71
2024/03/23 02:41:22;;;;;;;12.02;2.40;;;;;;;9.02;100.00;99825.56;5127690;28;20039;-73
2024/03/23 02:43:52;;;;;;;9.52;2.42;;;;;;;9.00;100.00;99825.66;5126737;28;20035;-72
2024/03/23 02:46:23;;;;;;;12.25;2.60;;;;;;;8.89;100.00;99829.59;5134067;28;20027;-74
2024/03/23 02:48:53;;;;;;;8.13;2.28;;;;;;;8.90;100.00;99819.09;5123518;28;20023;-71
2024/03/23 02:51:23;;;;;;;13.60;2.55;;;;;;;9.00;100.00;99817.81;5127435;28;20545;-72
2024/03/23 02:53:54;;;;;;;8.45;2.42;;;;;;;8.84;100.00;99811.53;5127255;28;20097;-73
2024/03/23 02:56:24;;;;;;;9.35;2.60;;;;;;;8.91;100.00;99814.75;5132077;28;20027;-71
2024/03/23 02:58:54;;;;;;;12.77;3.13;;;;;;;8.92;100.00;99814.66;5124904;28;20019;-71
2024/03/23 03:01:25;;;;;;;9.50;2.53;;;;;;;8.90;100.00;99811.28;5132039;28;20090;-71
2024/03/23 03:03:56;;;;;;;8.90;2.33;;;;;;;8.84;100.00;99801.13;5127000;28;20326;-71
2024/03/23 03:06:26;;;;;;;15.25;3.00;;;;;;;8.69;100.00;99803.50;5129664;28;20035;-72
2024/03/23 03:08:57;;;;;;;8.77;2.70;;;;;;;8.62;100.00;99795.09;5125988;28;20136;-71
2024/03/23 03:11:27;;;;;;;15.13;2.97;;;;;;;8.65;100.00;99794.97;5129978;28;20061;-70
2024/03/23 03:14:00;;;;;;;10.82;2.53;;;;;;;8.66;100.00;99796.66;5126278;28;20716;-72
2024/03/23 03:16:30;;;;;;;12.05;2.67;;;;;;;8.81;100.00;99796.03;5125069;28;20105;-72
2024/03/23 03:19:01;;;;;;;11.80;2.47;;;;;;;8.70;100.00;99787.81;5126605;28;20042;-72
2024/03/23 03:21:32;;;;;;;7.97;2.80;;;;;;;8.69;100.00;99780.91;5131445;28;20038;-73
2024/03/23 03:24:02;;;;;;;9.88;2.58;;;;;;;8.61;100.00;99783.00;5131325;28;20352;-71
2024/03/23 03:26:33;;;;;;;10.63;2.88;;;;;;;8.61;100.00;99788.19;5127104;28;20054;-72
2024/03/23 03:29:03;;;;;;;13.45;2.83;;;;;;;8.66;100.00;99781.03;5128844;28;20035;-72
2024/03/23 03:31:33;;;;;;;5.53;2.58;;;;;;;8.70;100.00;99776.56;5133140;28;20041;-72
2024/03/23 03:34:03;;;;;;;12.27;2.60;;;;;;;8.66;100.00;99780.16;5131305;28;20182;-71
2024/03/23 03:36:34;;;;;;;11.82;2.95;;;;;;;8.68;100.00;99781.81;5130391;28;20035;-71
2024/03/23 03:39:04;;;;;;;10.05;2.60;;;;;;;8.65;100.00;99779.34;5128213;28;20632;-72
2024/03/23 03:41:34;;;;;;;9.00;2.97;;;;;;;8.75;100.00;99778.03;5131346;28;20035;-73
2024/03/23 03:44:05;;;;;;;10.65;2.70;;;;;;;8.66;100.00;99783.63;5125343;28;20550;-73
2024/03/23 03:46:35;;;;;;;9.98;2.65;;;;;;;8.54;100.00;99776.31;5129043;28;20038;-71
2024/03/23 03:49:05;;;;;;;11.38;3.17;;;;;;;8.63;100.00;99770.75;5126708;28;20100;-70
2024/03/23 03:51:35;;;;;;;10.15;3.00;;;;;;;8.71;100.00;99766.06;5128219;28;20485;-70
2024/03/23 03:54:06;;;;;;;8.20;2.60;;;;;;;8.74;100.00;99771.13;5127984;28;20043;-70
2024/03/23 03:56:36;;;;;;;10.13;2.70;;;;;;;8.72;100.00;99774.72;5130688;28;20034;-71
2024/03/23 03:59:07;;;;;;;10.48;2.95;;;;;;;8.65;100.00;99766.31;5128815;28;20292;-71
2024/03/23 04:01:37;;;;;;;9.70;2.95;;;;;;;8.64;100.00;99764.63;5130306;28;20037;-72
2024/03/23 04:04:07;;;;;;;12.38;2.88;;;;;;;8.72;100.00;99765.16;5128237;28;20027;-73
2024/03/23 04:06:37;;;;;;;11.77;2.72;;;;;;;8.65;100.00;99763.72;5126799;28;20397;-72
2024/03/23 04:09:09;;;;;;;10.57;2.90;;;;;;;8.70;100.00;99753.13;5129563;28;20031;-71
2024/03/23 04:11:39;;;;;;;8.07;2.90;;;;;;;8.58;100.00;99757.03;5131903;28;20026;-71
2024/03/23 04:14:09;;;;;;;13.02;3.22;;;;;;;8.60;100.00;99752.66;5127359;28;20085;-72
2024/03/23 04:16:39;;;;;;;10.15;3.00;;;;;;;8.57;100.00;99755.34;5130245;28;20486;-73
2024/03/23 04:19:10;;;;;;;10.32;2.75;;;;;;;8.56;100.00;99743.25;5129430;28;20110;-72
2024/03/23 04:21:40;;;;;;;9.32;2.47;;;;;;;8.64;100.00;99746.41;5124497;28;20027;-70
2024/03/23 04:24:11;;;;;;;11.18;2.90;;;;;;;8.77;100.00;99739.78;5129156;28;20323;-73
2024/03/23 04:26:45;;;;;;;12.00;2.97;;;;;;;8.75;100.00;99738.13;5126324;28;20030;-71
2024/03/23 04:29:16;;;;;;;11.43;2.97;;;;;;;8.73;100.00;99729.53;5125915;28;20027;-72
2024/03/23 04:31:46;;;;;;;11.13;3.20;;;;;;;8.82;100.00;99740.44;5125723;28;20093;-71
2024/03/23 04:34:17;;;;;;;10.48;3.30;;;;;;;8.72;100.00;99741.72;5129561;28;20089;-71
2024/03/23 04:36:47;;;;;;;11.40;3.38;;;;;;;8.65;100.00;99735.06;5130200;28;20057;-72
2024/03/23 04:39:19;;;;;;;10.40;3.45;;;;;;;8.70;100.00;99734.88;5129086;28;20115;-71
2024/03/23 04:41:50;;;;;;;7.88;2.63;;;;;;;8.63;100.00;99729.06;5123460;28;20026;-71
2024/03/23 04:44:20;;;;;;;8.73;2.88;;;;;;;8.55;100.00;99731.13;5126431;28;20029;-73
2024/03/23 04:46:50;;;;;;;10.63;3.15;;;;;;;8.54;100.00;99737.25;5123833;28;20109;-72
2024/03/23 04:49:20;;;;;;;12.32;3.28;;;;;;;8.66;100.00;99733.28;5130585;28;20035;-71
2024/03/23 04:51:51;;;;;;;9.52;2.97;;;;;;;8.71;100.00;99721.78;5127840;28;20285;-71
2024/03/23 04:54:21;;;;;;;9.93;2.97;;;;;;;8.75;100.00;99719.91;5125190;28;20415;-73
2024/03/23 04:56:52;;;;;;;8.60;2.97;;;;;;;8.70;100.00;99724.47;5131714;28;20066;-71
2024/03/23 04:59:22;;;;;;;8.48;2.70;;;;;;;8.74;100.00;99716.44;5128630;28;20126;-73
2024/03/23 05:01:52;;;;;;;12.18;2.55;;;;;;;8.72;100.00;99718.25;5124842;28;20062;-71
2024/03/23 05:04:22;;;;;;;11.85;2.92;;;;;;;8.67;100.00;99717.63;5127704;28;20041;-72
2024/03/23 05:06:53;;;;;;;11.35;3.00;;;;;;;8.65;100.00;99705.56;5123800;28;20038;-69
2024/03/23 05:09:23;;;;;;;5.57;1.90;;;;;;;8.48;100.00;99703.66;5125984;28;20031;-73
2024/03/23 05:11:53;;;;;;;8.95;2.30;;;;;;;8.48;100.00;99701.06;5123609;28;20297;-72
2024/03/23 05:14:24;;;;;;;7.70;1.85;;;;;;;8.51;100.00;99694.84;5124379;28;20114;-71
2024/03/23 05:16:55;;;;;;;9.98;2.35;;;;;;;8.61;100.00;99694.44;5125232;28;20031;-73
2024/03/23 05:19:26;;;;;;;10.23;2.20;;;;;;;8.60;100.00;99705.78;5128680;28;20034;-71
2024/03/23 05:21:56;;;;;;;8.80;1.88;;;;;;;8.53;100.00;99696.50;5122478;28;20034;-71
2024/03/23 05:24:26;;;;;;;9.15;1.80;;;;;;;8.55;100.00;99696.44;5126628;28;20399;-73
2024/03/23 05:26:59;;;;;;;8.52;1.88;;;;;;;8.61;100.00;99698.78;5125680;28;20126;-73
2024/03/23 05:29:29;;;;;;;7.53;1.88;;;;;;;8.63;100.00;99692.63;5129088;28;20375;-72
2024/03/23 05:31:59;;;;;;;7.15;1.58;;;;;;;8.30;100.00;99693.13;5124271;28;20034;-73
2024/03/23 05:34:30;;;;;;;9.82;2.60;;;;;;;8.53;100.00;99683.47;5129631;28;20023;-73
2024/03/23 05:37:00;;;;;;;8.23;1.55;;;;;;;8.64;100.00;99683.91;5125358;28;20319;-71
2024/03/23 05:39:30;;;;;;;10.35;2.15;;;;;;;8.43;100.00;99689.13;5124441;28;20031;-73
2024/03/23 05:42:01;;;;;;;13.48;2.97;;;;;;;8.61;100.00;99680.56;5121529;28;20479;-72
2024/03/23 05:44:31;;;;;;;11.70;2.08;;;;;;;8.61;100.00;99673.59;5126885;28;20026;-71
2024/03/23 05:47:01;;;;;;;12.68;2.03;;;;;;;8.46;100.00;99682.06;5125699;28;20035;-72
2024/03/23 05:49:32;;;;;;;9.02;2.10;;;;;;;8.37;100.00;99687.63;5126266;28;20108;-71
2024/03/23 05:52:03;;;;;;;6.65;2.22;;;;;;;8.38;100.00;99685.88;5127446;28;20027;-71
2024/03/23 05:54:33;;;;;;;12.18;2.40;;;;;;;8.27;100.00;99693.28;5128843;28;20117;-72
2024/03/23 05:57:04;;;;;;;9.70;2.08;;;;;;;8.35;100.00;99692.06;5124156;28;20122;-71
2024/03/23 05:59:35;;;;;;;12.63;2.28;;;;;;;8.32;100.00;99689.56;5127577;28;20486;-71
2024/03/23 06:02:05;;;;;;;9.95;2.50;;;;;;;8.25;100.00;99700.28;5124574;28;20062;-71
2024/03/23 06:04:36;;;;;;;4.97;1.42;;;;;;;8.28;100.00;99693.22;5126479;28;20478;-73
2024/03/23 06:07:07;;;;;;;9.27;2.08;;;;;;;8.12;100.00;99676.50;5126730;28;20510;-72
2024/03/23 06:09:37;;;;;;;9.98;1.85;;;;;;;8.13;100.00;99686.00;5124767;28;20031;-71
2024/03/23 06:12:08;;;;;;;9.05;1.88;;;;;;;8.09;100.00;99684.44;5125059;28;20027;-73
2024/03/23 06:14:38;;;;;;;13.30;2.47;;;;;;;8.16;100.00;99675.44;5123779;28;20054;-73
2024/03/23 06:17:08;;;;;;;9.77;2.00;;;;;;;8.07;100.00;99675.81;5140969;23;20049;-71
2024/03/23 06:19:38;;;;;;;13.23;2.05;;;;;;;8.20;100.00;99682.25;5123387;28;20082;-72
2024/03/23 06:22:09;;;;;;;10.68;2.08;;;;;;;8.15;100.00;99680.72;5125031;28;20030;-73
2024/03/23 06:24:39;;;;;;;7.25;2.03;;;;;;;8.27;100.00;99688.06;5123059;28;20323;-74
2024/03/23 06:27:09;;;;;;;13.85;2.33;;;;;;;8.28;100.00;99695.81;5123695;28;20077;-74
2024/03/23 06:29:40;;;;;;;11.15;2.13;;;;;;;8.32;100.00;99689.56;5124165;28;20042;-74
2024/03/23 06:32:10;;;;;;;11.77;2.20;;;;;;;8.22;100.00;99688.25;5125641;28;20094;-74
2024/03/23 06:34:44;;;;;;;13.43;2.13;;;;;;;8.11;100.00;99687.81;5130318;28;20027;-74
2024/03/23 06:37:14;;;;;;;11.75;2.30;;;;;;;8.09;100.00;99688.78;5125110;28;20045;-73
2024/03/23 06:39:46;;;;;;;12.32;2.58;;;;;;;8.06;100.00;99692.31;5126582;28;20028;-72
2024/03/23 06:42:16;;;;;;;9.75;2.05;;;;;;;8.00;99.89;99684.78;5145107;28;20030;-74
2024/03/23 06:44:47;;;;;;;9.32;1.88;;;;;;;7.79;98.90;99688.22;5126105;28;20039;-72
2024/03/23 06:47:17;;;;;;;7.97;1.60;;;;;;;7.82;99.34;99695.91;5132549;28;20094;-73
2024/03/23 06:49:47;;;;;;;11.65;1.98;;;;;;;7.91;99.42;99694.69;5142370;28;20045;-72
2024/03/23 06:52:18;;;;;;;10.52;1.70;;;;;;;7.96;98.41;99697.97;5131042;28;20035;-74
2024/03/23 06:54:48;;;;;;;6.03;1.55;;;;;;;7.72;96.46;99702.34;5127474;28;20035;-74
2024/03/23 06:57:18;;;;;;;7.65;1.27;;;;;;;7.83;95.82;99695.00;5130855;28;20030;-74
2024/03/23 06:59:49;;;;;;;10.50;1.67;;;;;;;7.91;94.26;99697.28;5119630;28;20082;-74
2024/03/23 07:02:19;;;;;;;13.52;1.73;;;;;;;7.98;94.84;99696.13;5125265;28;20030;-74
2024/03/23 07:04:49;;;;;;;6.55;1.38;;;;;;;8.00;95.07;99703.00;5125224;28;20369;-74
2024/03/23 07:07:20;;;;;;;10.77;1.40;;;;;;;8.03;93.31;99699.44;5127185;28;20483;-74
2024/03/23 07:09:52;;;;;;;9.68;1.20;;;;;;;7.97;93.18;99700.50;5121077;28;20466;-74
2024/03/23 07:12:22;;;;;;;9.90;1.23;;;;;;;7.96;93.12;99698.81;5126669;28;20026;-74
2024/03/23 07:14:53;;;;;;;5.65;1.20;;;;;;;8.04;95.66;99690.72;5121918;28;20038;-72
2024/03/23 07:17:23;;;;;;;6.43;1.17;;;;;;;7.95;94.26;99691.91;5129346;28;20278;-74
2024/03/23 07:19:53;;;;;;;8.07;1.17;;;;;;;7.92;94.87;99699.84;5123134;28;20027;-74
2024/03/23 07:22:24;;;;;;;9.27;1.48;;;;;;;7.95;96.56;99696.25;5126726;28;20031;-74
2024/03/23 07:24:54;;;;;;;8.05;1.48;;;;;;;7.89;97.49;99689.53;5127498;28;20521;-72
2024/03/23 07:27:24;;;;;;;4.47;0.90;;;;;;;8.00;95.48;99676.97;5128806;28;20275;-74
2024/03/23 07:29:55;;;;;;;3.50;1.10;;;;;;;8.24;96.62;99685.59;5124003;28;20403;-74
2024/03/23 07:32:26;;;;;;;8.20;1.33;;;;;;;8.18;97.33;99691.88;5127956;28;20033;-73
2024/03/23 07:34:56;;;;;;;5.43;1.20;;;;;;;8.28;97.47;99689.75;5122751;28;20105;-75
2024/03/23 07:37:27;;;;;;;10.73;1.55;;;;;;;8.23;95.73;99692.53;5125828;28;20297;-73
2024/03/23 07:39:58;;;;;;;7.50;1.40;;;;;;;8.40;96.76;99699.69;5138530;28;20031;-74
2024/03/23 07:42:29;;;;;;;12.13;1.42;;;;;;;8.39;94.84;99698.81;5125589;28;20058;-75
2024/03/23 07:44:59;;;;;;;4.30;1.17;;;;;;;8.64;95.47;99696.91;5114851;28;20027;-72
2024/03/23 07:47:29;;;;;;;5.80;1.33;;;;;;;8.74;96.72;99700.81;5119982;28;20073;-74
2024/03/23 07:50:00;;;;;;;7.47;1.58;;;;;;;8.82;96.27;99703.09;5118756;28;20027;-74
2024/03/23 07:52:30;;;;;;;8.10;1.77;;;;;;;8.77;96.86;99708.53;5122207;28;20060;-74
2024/03/23 07:55:01;;;;;;;9.20;1.73;;;;;;;8.81;95.24;99698.78;5119144;28;20448;-74
2024/03/23 07:57:31;;;;;;;7.63;1.50;;;;;;;8.76;95.90;99687.72;5119706;28;20098;-75
2024/03/23 08:00:01;;;;;;;8.35;1.48;;;;;;;8.88;95.28;99687.22;5122615;28;20085;-74
2024/03/23 08:02:33;;;;;;;11.13;1.38;;;;;;;8.99;92.89;99688.44;5123849;28;20662;-74
2024/03/23 08:05:03;;;;;;;5.53;1.08;;;;;;;8.60;92.92;99692.75;5121738;28;20031;-74
2024/03/23 08:07:34;;;;;;;8.20;1.73;;;;;;;8.63;94.75;99713.44;5121658;28;20522;-75
2024/03/23 08:10:04;;;;;;;5.88;1.17;;;;;;;8.55;94.60;99705.09;5120669;28;20066;-74
2024/03/23 08:12:35;;;;;;;5.93;1.33;;;;;;;8.66;94.63;99702.03;5124360;28;20070;-74
2024/03/23 08:15:05;;;;;;;7.40;1.63;;;;;;;8.47;93.98;99701.97;5135154;28;20514;-75
2024/03/23 08:17:36;;;;;;;6.15;1.20;;;;;;;8.49;93.74;99699.28;5119096;28;20103;-75
2024/03/23 08:20:08;;;;;;;4.47;1.08;;;;;;;8.60;94.60;99700.56;5121435;28;20105;-74
2024/03/23 08:22:38;;;;;;;10.20;1.02;;;;;;;8.50;94.92;99693.16;5121324;28;20034;-74
2024/03/23 08:25:08;;;;;;;7.10;1.27;;;;;;;8.57;94.49;99700.66;5124143;28;20330;-75
2024/03/23 08:27:38;;;;;;;7.25;1.30;;;;;;;8.58;93.50;99710.16;5122268;28;20027;-74
2024/03/23 08:30:09;;;;;;;6.68;1.10;;;;;;;8.54;95.89;99705.19;5123587;28;20154;-75
2024/03/23 08:32:39;;;;;;;10.32;1.38;;;;;;;8.57;97.17;99698.06;5130500;28;20034;-74
2024/03/23 08:35:10;;;;;;;5.32;0.93;;;;;;;8.47;96.33;99696.75;5126984;28;20085;-74
2024/03/23 08:37:40;;;;;;;6.38;1.20;;;;;;;8.77;95.79;99687.69;5126432;28;20043;-75
2024/03/23 08:40:11;;;;;;;5.90;1.10;;;;;;;8.72;97.05;99687.00;5123411;28;20031;-75
2024/03/23 08:42:41;;;;;;;10.48;1.77;;;;;;;8.97;94.05;99687.66;5122859;28;20122;-75
2024/03/23 08:45:11;;;;;;;8.80;1.25;;;;;;;9.08;93.48;99688.03;5126684;28;20023;-74
2024/03/23 08:47:41;;;;;;;8.98;1.50;;;;;;;9.07;94.66;99696.75;5127923;28;20027;-74
2024/03/23 08:50:12;;;;;;;9.20;1.40;;;;;;;8.95;94.49;99699.06;5126714;28;20058;-74
2024/03/23 08:52:42;;;;;;;7.55;1.23;;;;;;;9.28;92.62;99694.06;5132382;28;20392;-74
2024/03/23 08:55:13;;;;;;;6.57;1.35;;;;;;;9.10;94.81;99691.41;5121988;28;20030;-74
2024/03/23 08:57:43;;;;;;;7.85;1.60;;;;;;;9.28;95.90;99690.63;5121057;28;20037;-75
2024/03/23 09:00:14;;;;;;;9.25;1.33;;;;;;;9.12;96.12;99697.44;5129789;28;20026;-74
2024/03/23 09:02:47;;;;;;;6.05;1.40;;;;;;;9.23;93.48;99687.34;5122513;28;20276;-73
2024/03/23 09:05:18;;;;;;;10.43;1.63;;;;;;;9.08;93.84;99690.63;5115619;28;20166;-74
2024/03/23 09:07:48;;;;;;;8.50;1.80;;;;;;;9.33;92.99;99686.06;5135914;28;20557;-75
2024/03/23 09:10:18;;;;;;;12.63;1.88;;;;;;;9.66;93.47;99684.53;5130069;28;20034;-74
2024/03/23 09:12:49;;;;;;;11.82;2.00;;;;;;;10.24;91.85;99679.13;5126726;28;20027;-73
2024/03/23 09:15:19;;;;;;;9.07;2.10;;;;;;;10.51;91.26;99682.97;5126585;28;20185;-74
2024/03/23 09:17:49;;;;;;;12.55;2.75;;;;;;;10.59;90.71;99680.00;5127485;28;20031;-73
2024/03/23 09:23:46;;;;;;;18.10;3.27;;;;;;;9.91;90.75;99695.50;5114538;28;20054;-74
2024/03/23 09:26:17;;;;;;;10.77;2.35;;;;;;;9.73;92.43;99702.44;5119330;28;20038;-74
2024/03/23 09:28:50;;;;;;;13.80;2.92;;;;;;;9.54;92.50;99711.16;5119728;28;20059;-72
2024/03/23 09:31:20;;;;;;;10.32;2.55;;;;;;;9.52;94.06;99713.00;5114583;28;20020;-72
2024/03/23 09:33:50;;;;;;;12.18;2.88;;;;;;;9.13;96.39;99735.63;5126526;28;20035;-73
2024/03/23 09:36:20;;;;;;;18.17;4.25;;;;;;;8.72;95.87;99733.88;5122313;28;20557;-72
2024/03/23 09:38:51;;;;;;;24.75;4.57;;;;;;;8.47;94.80;99717.59;5120441;28;20038;-72
2024/03/23 09:41:21;;;;;;;22.52;6.22;;;;;;;8.26;95.62;99708.06;5127801;28;20099;-73
2024/03/23 09:43:53;;;;;;;15.85;3.75;;;;;;;8.43;92.77;99715.16;5130567;28;20075;-72
2024/03/23 09:46:24;;;;;;;15.15;3.05;;;;;;;8.36;94.86;99717.16;5126493;28;20073;-72
2024/03/23 09:48:56;;;;;;;15.13;4.40;;;;;;;8.42;96.59;99722.13;5127485;28;20028;-72
2024/03/23 09:51:26;;;;;;;16.15;3.33;;;;;;;8.75;98.99;99718.13;5124856;28;20026;-74
2024/03/23 09:53:57;;;;;;;18.73;4.88;;;;;;;9.00;99.54;99718.81;5116461;28;20390;-75
2024/03/23 09:56:27;;;;;;;15.95;3.90;;;;;;;8.97;100.00;99713.72;5124902;28;20038;-75
2024/03/23 09:59:04;;;;;;;15.23;4.20;;;;;;;9.24;100.00;99702.94;5128879;28;20374;-73
2024/03/23 10:01:35;;;;;;;18.10;3.60;;;;;;;9.42;99.42;99701.25;5128729;28;20403;-75
2024/03/23 10:04:06;;;;;;;13.38;2.75;;;;;;;9.38;99.29;99699.72;5132146;28;20062;-74
2024/03/23 10:06:36;;;;;;;15.50;3.85;;;;;;;9.38;100.00;99697.97;5133118;28;20041;-74
2024/03/23 10:09:27;;;;;;;12.40;3.30;;;;;;;9.98;99.23;99707.38;5131017;28;20038;-74
2024/03/23 10:12:08;;;;;;;16.60;4.07;;;;;;;10.14;98.74;99693.53;5129894;28;20086;-75
2024/03/23 10:14:42;;;;;;;15.38;3.70;;;;;;;10.49;99.03;99694.44;5132755;28;20457;-76
2024/03/23 10:17:17;;;;;;;16.35;3.70;;;;;;;10.84;96.46;99693.53;5120247;28;20035;-73
2024/03/23 10:19:50;;;;;;;14.05;3.28;;;;;;;11.03;95.64;99693.34;5120512;28;20105;-74
2024/03/23 10:22:22;;;;;;;14.27;4.10;;;;;;;11.11;93.40;99685.94;5124805;28;20062;-74
2024/03/23 10:24:53;;;;;;;15.85;3.78;;;;;;;11.53;95.30;99694.16;5127847;28;20541;-73
2024/03/23 10:27:24;;;;;;;18.02;4.28;;;;;;;11.79;92.20;99683.16;5112296;28;20043;-75
2024/03/23 10:32:34;;;;;;;40.60;11.52;;;;;;;11.73;90.97;99674.78;5728758;23;20055;-75
2024/03/23 10:35:35;;;;;;;30.42;8.23;;;;;;;11.47;88.02;99678.78;5115968;28;20060;-72
2024/03/23 10:38:06;;;;;;;32.03;8.90;;;;;;;11.38;86.95;99676.66;5111165;28;20035;-72
2024/03/23 10:40:37;;;;;;;26.77;6.88;;;;;;;11.45;85.82;99664.94;5128136;28;20403;-73
2024/03/23 10:43:08;;;;;;;32.90;8.52;;;;;;;11.30;83.89;99659.69;5129249;28;20333;-76
2024/03/23 10:45:38;;;;;;;25.02;6.55;;;;;;;11.33;84.50;99668.22;5120076;28;20908;-75
2024/03/23 10:48:08;;;;;;;21.85;5.60;;;;;;;11.10;81.19;99665.97;5449826;23;20106;-72
2024/03/23 10:50:39;;;;;;;16.60;3.72;;;;;;;10.87;81.38;99659.41;5126040;28;20549;-72
2024/03/23 10:53:11;;;;;;;16.05;4.03;;;;;;;10.80;82.39;99673.69;5121797;28;20042;-72
2024/03/23 10:55:42;;;;;;;25.30;6.75;;;;;;;11.06;84.47;99682.72;5124168;28;20134;-71
2024/03/23 10:58:14;;;;;;;22.75;6.18;;;;;;;10.65;80.63;99688.38;5114317;28;20140;-69
2024/03/23 11:00:45;;;;;;;18.30;5.57;;;;;;;10.07;79.49;99701.72;5119637;28;20038;-70
2024/03/23 11:03:38;;;;;;;19.48;5.15;;;;;;;9.67;82.16;99696.66;5124808;28;20327;-70
2024/03/23 11:06:08;;;;;;;13.02;2.72;;;;;;;9.33;83.22;99693.88;5118765;28;20039;-72
2024/03/23 11:08:41;;;;;;;31.75;9.52;;;;;;;9.42;83.99;99696.06;5123757;28;20053;-72
2024/03/23 11:11:23;;;;;;;21.27;5.85;;;;;;;9.58;83.57;99686.63;5124124;28;20049;-71
2024/03/23 11:13:54;;;;;;;9.02;2.65;;;;;;;9.64;82.22;99687.19;5119823;28;20122;-70
2024/03/23 11:16:30;;;;;;;17.27;4.65;;;;;;;9.61;81.19;99687.34;5127770;28;20425;-71
2024/03/23 11:19:39;;;;;;;16.75;4.05;;;;;;;9.92;82.35;99686.75;5131800;28;20023;-72
2024/03/23 11:22:09;;;;;;;11.65;3.80;;;;;;;9.53;79.62;99688.59;5124593;28;20043;-72
2024/03/23 11:24:39;;;;;;;7.05;1.88;;;;;;;9.49;79.78;99681.84;5129691;28;20537;-71
2024/03/23 11:27:16;;;;;;;8.95;2.58;;;;;;;9.65;81.86;99682.84;5123788;28;20058;-72
2024/03/23 11:29:46;;;;;;;11.18;2.03;;;;;;;9.77;83.33;99672.66;5127123;28;20030;-72
2024/03/23 11:32:17;;;;;;;31.75;10.93;;;;;;;9.86;81.86;99682.66;5134461;28;20557;-71
2024/03/23 11:34:47;;;;;;;22.83;7.65;;;;;;;9.76;82.29;99680.56;5116604;28;20545;-72
2024/03/23 11:37:17;;;;;;;24.27;7.53;;;;;;;9.96;84.12;99670.06;5110740;28;20034;-71
2024/03/23 11:39:49;;;;;;;15.38;3.50;;;;;;;10.08;83.59;99661.66;5112240;28;20057;-72
2024/03/23 11:42:21;;;;;;;17.63;4.82;;;;;;;10.28;83.70;99644.09;5118451;28;20300;-71
2024/03/23 11:44:51;;;;;;;11.85;2.42;;;;;;;10.24;82.97;99645.19;5120171;28;20027;-70
2024/03/23 11:47:21;;;;;;;15.25;3.47;;;;;;;10.55;82.37;99641.88;5118361;28;20536;-71
2024/03/23 11:49:52;;;;;;;15.38;3.80;;;;;;;10.49;80.54;99652.66;5122585;28;20027;-71
2024/03/23 11:52:22;;;;;;;8.23;2.03;;;;;;;10.28;77.21;99653.69;5121285;28;20046;-69